KCCR/CCR METAR and TAF weather

Enter ICAO airport designator
Station Type Date Time Source
KCCR METAR 2020/07/06 08:53 UTC NOAA

KCCR 060853Z AUTO 19011KT 10SM CLR 18/09 A2990 RMK AO2 SLP110 T01780094 58004


Station Type Date Time Source
KCCR Decoded METAR 2020/07/06 08:53 UTC NOAA

CONCORD BUCHANAN FIELD, CA, United States (KCCR) 38-00N 122-03W 11M
Jul 06, 2020 - 04:53 AM EDT / 2020.07.06 0853 UTC
Wind: from the S (190 degrees) at 13 MPH (11 KT):0
Visibility: 10 mile(s):0
Sky conditions: clear
Temperature: 64.0 F (17.8 C)
Dew Point: 48.9 F (9.4 C)
Relative Humidity: 57%
Pressure (altimeter): 29.9 in. Hg (1012 hPa)
Pressure tendency: 0.01 inches (0.4 hPa) lower than three hours ago
ob: KCCR 060853Z AUTO 19011KT 10SM CLR 18/09 A2990 RMK AO2 SLP110 T01780094 58004
cycle: 9

Station Type Date Time Source
KCCR TAF 2016/02/08 18:39 UTC NOAA

TAF KCCR 081738Z 0818/0918 07006KT P6SM SKC
FM082000 06010KT P6SM SKC
FM090000 06005KT P6SM SKC
FM090600 VRB03KT P6SM SKC

Example: see airport list